createdAt,value
2019-01-03T08:33:58.387Z,25.20
2019-01-03T08:37:17.300Z,23.40
2019-01-03T08:40:28.532Z,18.93
2019-01-03T08:43:50.296Z,25.77
2019-01-03T08:46:41.601Z,22.23
2019-01-03T08:49:44.683Z,18.40
2019-01-03T08:52:43.436Z,17.93
2019-01-03T08:55:47.899Z,17.70
2019-01-03T08:58:41.205Z,21.70
2019-01-03T09:02:02.678Z,20.10
2019-01-03T09:05:04.613Z,18.17
2019-01-03T09:08:33.682Z,17.17
2019-01-03T09:11:29.468Z,22.30
2019-01-03T09:14:39.763Z,15.63
2019-01-03T09:17:32.344Z,15.07
2019-01-03T09:20:23.582Z,14.80
2019-01-03T09:23:34.273Z,20.20
2019-01-03T09:26:42.165Z,11.73
2019-01-03T09:29:57.252Z,17.30
2019-01-03T09:32:59.555Z,12.40
2019-01-03T09:36:06.244Z,16.30
2019-01-03T09:38:58.755Z,16.37
2019-01-03T09:41:56.374Z,13.77
2019-01-03T09:44:46.583Z,18.30
2019-01-03T09:47:20.348Z,17.50
2019-01-03T09:49:54.896Z,14.33
2019-01-03T09:52:30.565Z,19.17
2019-01-03T09:55:04.001Z,21.63
2019-01-03T09:57:55.537Z,18.13
2019-01-03T10:00:28.159Z,15.63
2019-01-03T10:03:19.025Z,14.93
2019-01-03T10:06:04.062Z,20.37
2019-01-03T10:08:39.103Z,15.63
2019-01-03T10:11:13.028Z,11.37
2019-01-03T10:13:49.299Z,15.43
2019-01-03T10:16:23.558Z,19.43
2019-01-03T10:19:47.425Z,12.53
2019-01-03T10:23:10.826Z,13.93
2019-01-03T10:25:44.690Z,13.97
2019-01-03T10:28:16.980Z,16.27
2019-01-03T10:31:11.402Z,17.93
2019-01-03T10:33:44.293Z,14.20
2019-01-03T10:36:24.111Z,13.00
2019-01-03T10:38:53.242Z,14.70
2019-01-03T10:41:26.775Z,11.27
2019-01-03T10:44:00.858Z,11.33
2019-01-03T10:46:53.049Z,14.47
2019-01-03T10:49:27.478Z,12.63
2019-01-03T10:52:01.117Z,11.23
2019-01-03T10:54:34.689Z,7.70
2019-01-03T10:57:08.462Z,8.97
2019-01-03T10:59:55.954Z,9.00
2019-01-03T11:02:28.949Z,9.00
2019-01-03T11:05:01.178Z,9.67
2019-01-03T11:07:33.743Z,6.90
2019-01-03T11:10:07.171Z,8.27
2019-01-03T11:12:40.481Z,9.00
2019-01-03T11:15:14.146Z,11.17
2019-01-03T11:17:48.228Z,6.30
2019-01-03T11:20:22.017Z,8.37
2019-01-03T11:23:12.654Z,10.10
2019-01-03T11:26:11.233Z,7.90
2019-01-03T11:29:02.631Z,7.13
2019-01-03T11:31:54.537Z,9.00
2019-01-03T11:34:28.069Z,9.53
2019-01-03T11:37:02.153Z,18.73
2019-01-03T11:39:39.745Z,18.47
2019-01-03T11:42:19.320Z,9.97
2019-01-03T11:44:53.602Z,11.40
2019-01-03T11:47:28.248Z,5.63
2019-01-03T11:50:14.734Z,8.83
2019-01-03T11:52:48.673Z,5.20
2019-01-03T11:55:23.497Z,4.87
2019-01-03T11:57:57.641Z,8.30
2019-01-03T12:00:31.612Z,8.27
2019-01-03T12:03:05.332Z,9.90
2019-01-03T12:05:50.864Z,4.00
2019-01-03T12:08:22.860Z,10.17
2019-01-03T12:10:57.177Z,9.47
2019-01-03T12:13:43.096Z,5.13
2019-01-03T12:26:57.148Z,8.53
2019-01-03T12:29:30.605Z,12.53
2019-01-03T12:32:04.452Z,10.33
2019-01-03T12:34:38.434Z,7.17
2019-01-03T12:37:31.007Z,8.73
2019-01-03T12:40:15.826Z,7.20
2019-01-03T12:43:06.738Z,7.03
2019-01-03T12:45:58.114Z,8.50
2019-01-03T12:48:31.764Z,7.10
2019-01-03T12:51:05.061Z,7.67
2019-01-03T12:53:38.822Z,10.53
2019-01-03T12:56:12.152Z,8.73
2019-01-03T12:58:45.992Z,12.07
2019-01-03T13:01:18.949Z,10.37
2019-01-03T13:04:03.000Z,6.17
2019-01-03T13:06:36.389Z,11.00
2019-01-03T13:09:17.471Z,9.43
2019-01-03T13:11:50.611Z,5.33
2019-01-03T13:14:34.910Z,9.73
2019-01-03T13:17:08.479Z,6.57
2019-01-03T13:19:42.059Z,4.27
2019-01-03T13:22:28.958Z,8.93
2019-01-03T13:25:03.804Z,9.57
2019-01-03T13:27:37.880Z,7.33
2019-01-03T13:30:11.976Z,6.07
2019-01-03T13:33:05.120Z,12.33
2019-01-03T13:35:38.624Z,8.87
2019-01-03T13:38:12.059Z,9.60
2019-01-03T13:40:45.139Z,8.30
2019-01-03T13:43:18.481Z,4.40
2019-01-03T13:45:52.465Z,8.60
2019-01-03T13:48:37.593Z,12.10
2019-01-03T13:51:11.526Z,11.57
2019-01-03T13:53:57.271Z,6.17
2019-01-03T13:56:30.699Z,13.27
2019-01-03T13:59:03.036Z,7.53
2019-01-03T14:01:35.449Z,10.90
2019-01-03T14:04:09.605Z,8.70
2019-01-03T14:06:43.378Z,9.37
2019-01-03T14:09:27.759Z,11.63
2019-01-03T14:12:18.040Z,17.23
2019-01-03T14:15:01.993Z,13.73
2019-01-03T14:17:37.116Z,16.10
2019-01-03T14:20:12.685Z,26.17
2019-01-03T14:22:45.559Z,16.13
2019-01-03T14:25:19.358Z,15.47
2019-01-03T14:27:53.141Z,14.47
2019-01-03T14:30:26.795Z,13.50
2019-01-03T14:33:00.683Z,13.10
2019-01-03T14:35:35.857Z,11.00
2019-01-03T14:38:10.161Z,6.13
2019-01-03T14:40:44.399Z,9.77
2019-01-03T14:43:17.731Z,8.40
2019-01-03T14:45:51.314Z,7.63
2019-01-03T14:48:24.973Z,12.37
2019-01-03T14:50:58.598Z,9.47
2019-01-03T14:53:32.799Z,10.20
2019-01-03T14:56:18.544Z,7.70
2019-01-03T14:58:53.149Z,10.03
2019-01-03T15:01:43.891Z,9.67
2019-01-03T15:04:35.157Z,7.53
2019-01-03T15:07:08.632Z,8.77
2019-01-03T15:09:43.176Z,8.67
2019-01-03T15:12:17.151Z,8.63
2019-01-03T15:14:50.511Z,12.10
2019-01-03T15:17:28.313Z,8.77
2019-01-03T15:20:13.720Z,8.97
2019-01-03T15:22:58.880Z,5.57
2019-01-03T15:25:32.532Z,11.20
2019-01-03T15:28:09.547Z,9.17
2019-01-03T15:30:50.698Z,8.17
2019-01-03T15:33:24.185Z,8.37
2019-01-03T15:36:00.186Z,11.73
2019-01-03T15:38:46.122Z,12.17
2019-01-03T15:41:18.502Z,10.17
2019-01-03T15:43:52.081Z,11.33
2019-01-03T15:46:29.425Z,8.37
2019-01-03T15:49:03.310Z,10.13
2019-01-03T15:52:11.960Z,12.87
2019-01-03T15:55:06.532Z,7.83
2019-01-03T15:58:08.572Z,8.90
2019-01-03T16:00:44.202Z,9.07
2019-01-03T16:03:17.935Z,5.53
2019-01-03T16:06:36.710Z,15.03
2019-01-03T16:09:08.383Z,8.60
2019-01-03T16:11:43.168Z,7.80
2019-01-03T16:14:18.033Z,12.90
2019-01-03T16:17:03.854Z,10.93
2019-01-03T16:19:55.662Z,9.67
2019-01-03T16:22:30.271Z,8.30
2019-01-03T16:25:04.254Z,15.63
2019-01-03T16:27:37.907Z,11.60
2019-01-03T16:30:14.221Z,11.30
2019-01-03T16:32:49.359Z,11.90
2019-01-03T16:35:23.780Z,6.00
2019-01-03T16:37:58.098Z,9.43
2019-01-03T16:40:43.403Z,8.67
2019-01-03T16:43:33.376Z,19.27
2019-01-03T16:46:06.746Z,11.77
2019-01-03T16:52:30.661Z,9.97
2019-01-03T16:55:24.249Z,12.83
2019-01-03T16:58:58.242Z,9.60
2019-01-03T17:04:17.424Z,10.60
2019-01-03T17:06:51.969Z,14.80
2019-01-03T17:09:26.148Z,11.00
2019-01-03T17:12:00.012Z,13.30
2019-01-03T17:18:16.855Z,10.97
2019-01-03T17:20:50.716Z,11.47
2019-01-03T17:23:36.271Z,15.63
2019-01-03T17:26:31.549Z,11.57
2019-01-03T17:29:06.404Z,9.13
2019-01-03T17:31:57.725Z,12.67
2019-01-03T17:34:31.626Z,11.83
2019-01-03T17:37:09.419Z,17.43
2019-01-03T17:39:43.820Z,13.33
2019-01-03T17:42:18.404Z,17.70
2019-01-03T17:44:56.371Z,17.47
2019-01-03T17:47:50.174Z,16.07
2019-01-03T17:50:56.990Z,13.47
2019-01-03T17:57:33.012Z,22.53
2019-01-03T18:00:24.364Z,22.03
2019-01-03T18:03:08.930Z,19.20
2019-01-03T18:05:56.889Z,20.07
2019-01-03T18:08:49.413Z,22.27
2019-01-03T18:11:24.120Z,23.07
2019-01-03T18:13:58.510Z,20.70
2019-01-03T18:16:43.600Z,16.73
2019-01-03T18:19:30.355Z,19.80
2019-01-03T18:22:05.496Z,16.30
2019-01-03T18:24:39.710Z,13.67
2019-01-03T18:27:33.793Z,12.93
2019-01-03T18:30:08.462Z,12.00
2019-01-03T18:32:59.651Z,9.83
2019-01-03T18:35:33.587Z,19.23
2019-01-03T18:38:26.874Z,14.87
2019-01-03T18:41:00.886Z,13.07
2019-01-03T18:43:46.475Z,14.83
2019-01-03T18:46:20.814Z,11.20
2019-01-03T18:48:54.863Z,14.73
2019-01-03T18:51:28.744Z,16.30
2019-01-03T18:54:01.999Z,15.40
2019-01-03T18:56:35.422Z,14.03
2019-01-03T18:59:11.280Z,15.43
2019-01-03T19:01:46.415Z,14.13
2019-01-03T19:04:25.563Z,15.63
2019-01-03T19:06:59.687Z,14.00
2019-01-03T19:09:34.457Z,12.93
2019-01-03T19:12:07.699Z,17.93
2019-01-03T19:15:05.730Z,20.10
2019-01-03T19:17:39.600Z,17.83
2019-01-03T19:20:14.284Z,11.70
2019-01-03T19:22:48.800Z,22.00
2019-01-03T19:25:52.032Z,16.03
2019-01-03T19:28:38.797Z,19.70
2019-01-03T19:31:14.436Z,16.07
2019-01-03T19:34:07.002Z,22.93
2019-01-03T19:36:43.478Z,17.53
2019-01-03T19:39:17.335Z,21.67
2019-01-03T19:41:50.747Z,26.33
2019-01-03T19:44:24.555Z,27.73
2019-01-03T19:46:59.305Z,32.90
2019-01-03T19:49:33.118Z,33.77
2019-01-03T19:52:07.507Z,42.30
2019-01-03T19:55:00.536Z,35.57
2019-01-03T19:57:32.783Z,31.43
2019-01-03T20:00:22.885Z,23.00
2019-01-03T20:02:56.982Z,25.17
2019-01-03T20:05:47.812Z,22.13
2019-01-03T20:08:21.566Z,19.07
2019-01-03T20:11:06.903Z,24.80
2019-01-03T20:13:52.981Z,19.97
2019-01-03T20:16:44.061Z,20.40
2019-01-03T20:19:18.030Z,18.90
2019-01-03T20:22:03.247Z,21.97
2019-01-03T20:24:54.079Z,24.10
2019-01-03T20:27:33.589Z,22.33
2019-01-03T20:30:07.805Z,17.23
2019-01-03T20:32:42.622Z,15.60
2019-01-03T20:35:16.104Z,19.00
2019-01-03T20:37:49.110Z,14.17
2019-01-03T20:40:23.431Z,12.50
2019-01-03T20:42:57.412Z,10.77
2019-01-03T20:45:30.773Z,13.27
2019-01-03T20:48:16.581Z,14.93
2019-01-03T20:51:03.259Z,11.37
2019-01-03T20:53:37.415Z,11.17
2019-01-03T20:56:23.842Z,11.47
2019-01-03T21:01:55.824Z,12.27
2019-01-03T21:04:47.621Z,11.70
2019-01-03T21:07:31.906Z,18.20
2019-01-03T21:10:05.405Z,10.53
2019-01-03T21:13:01.860Z,9.73
2019-01-03T21:15:44.222Z,14.33
2019-01-03T21:18:21.423Z,11.60
2019-01-03T21:21:33.668Z,13.30
2019-01-03T21:24:15.584Z,11.80
2019-01-03T21:27:02.373Z,7.53
2019-01-03T21:36:47.774Z,9.53
2019-01-03T21:39:22.529Z,8.60
2019-01-03T21:42:01.276Z,13.07
2019-01-03T21:44:37.913Z,8.57
2019-01-03T21:47:12.091Z,11.60
2019-01-03T21:49:45.679Z,8.07
2019-01-03T21:52:38.515Z,11.23
2019-01-03T21:55:14.264Z,9.23
2019-01-03T21:58:03.645Z,10.33
2019-01-03T22:00:38.247Z,7.37
2019-01-03T22:03:12.192Z,11.17
2019-01-03T22:05:48.472Z,10.67
2019-01-03T22:08:24.786Z,9.10
2019-01-03T22:11:21.089Z,16.00
2019-01-03T22:14:04.010Z,7.07
2019-01-03T22:16:52.788Z,9.00
2019-01-03T22:19:48.729Z,7.43
2019-01-03T22:22:23.012Z,12.67
2019-01-03T22:24:57.319Z,9.73
2019-01-03T22:27:36.642Z,6.80
2019-01-03T22:30:17.968Z,10.57
2019-01-03T22:33:12.196Z,5.57
2019-01-03T22:35:48.032Z,12.00
2019-01-03T22:38:23.261Z,9.23
2019-01-03T22:40:56.629Z,8.80
2019-01-03T22:43:30.693Z,11.17
2019-01-03T22:46:16.841Z,13.80
2019-01-03T22:48:50.488Z,6.87
2019-01-03T22:51:26.421Z,7.03
2019-01-03T22:53:59.995Z,7.80
2019-01-03T22:56:32.552Z,10.90
2019-01-03T22:59:20.647Z,8.90
2019-01-03T23:01:54.134Z,6.57
2019-01-03T23:04:28.014Z,8.10
2019-01-03T23:07:03.127Z,9.60
2019-01-03T23:09:36.547Z,6.93
2019-01-03T23:12:10.415Z,7.67
2019-01-03T23:14:45.069Z,8.87
2019-01-03T23:17:33.323Z,7.40
2019-01-03T23:20:07.406Z,8.30
2019-01-03T23:22:42.025Z,10.83
2019-01-03T23:25:18.162Z,9.13
2019-01-03T23:28:10.139Z,8.17
2019-01-03T23:30:56.659Z,14.97
2019-01-03T23:33:38.097Z,10.77
2019-01-03T23:56:11.843Z,9.07
2019-01-03T23:58:46.211Z,9.10
